Time;durP1;ratioP1;P1;durP2;ratioP2;P2;SDS_P1;SDS_P2;PMS_P1;PMS_P2;Temp;Humidity;BMP_temperature;BMP_pressure;BME280_temperature;BME280_humidity;BME280_pressure;Samples;Min_cycle;Max_cycle;Signal;HPM_P1;HPM_P2
2022/03/04 00:02:14;;;;;;;;;;;;;;;0.72;72.34;101386.95;1572603;91;20212;-73
2022/03/04 00:04:39;;;;;;;;;;;;;;;0.75;72.21;101395.57;1586674;87;20121;-73
2022/03/04 00:07:12;;;;;;;;;;;;;;;0.77;72.32;101396.90;1609872;87;20112;-73
2022/03/04 00:09:39;;;;;;;;;;;;;;;0.81;72.19;101403.42;1609762;87;20215;-73
2022/03/04 00:12:07;;;;;;;;;;;;;;;0.82;72.33;101404.30;1609326;89;20435;-73
2022/03/04 00:14:33;;;;;;;;;;;;;;;0.84;72.21;101398.45;1592504;87;20458;-74
2022/03/04 00:16:59;;;;;;;;;;;;;;;0.87;72.14;101400.23;1620077;87;20121;-74
2022/03/04 00:19:24;;;;;;;;;;;;;;;0.88;72.22;101399.42;1592238;90;20237;-74
2022/03/04 00:21:51;;;;;;;;;;;;;;;0.91;72.40;101396.98;1619739;87;20199;-74
2022/03/04 00:24:18;;;;;;;;;;;;;;;0.92;72.29;101399.59;1617252;87;20454;-74
2022/03/04 00:26:44;;;;;;;;;;;;;;;0.95;72.32;101394.61;1626140;87;20130;-74
2022/03/04 00:29:11;;;;;;;;;;;;;;;0.97;72.59;101401.03;1617553;88;20140;-73
2022/03/04 00:31:37;;;;;;;;;;;;;;;0.99;72.41;101396.86;1645263;87;20151;-73
2022/03/04 00:34:06;;;;;;;;;;;;;;;0.99;72.48;101391.36;1612455;88;20131;-73
2022/03/04 00:36:32;;;;;;;;;;;;;;;1.01;72.42;101393.09;1628151;87;20141;-73
2022/03/04 00:38:58;;;;;;;;;;;;;;;1.02;72.38;101396.97;1600487;87;20171;-73
2022/03/04 00:41:24;;;;;;;;;;;;;;;1.03;72.55;101397.42;1626826;87;20157;-73
2022/03/04 00:43:51;;;;;;;;;;;;;;;1.03;72.43;101389.78;1617387;88;20165;-73
2022/03/04 00:46:18;;;;;;;;;;;;;;;1.03;72.52;101392.33;1640409;87;20102;-73
2022/03/04 00:48:44;;;;;;;;;;;;;;;1.03;72.49;101394.01;1622677;87;20112;-73
2022/03/04 00:51:11;;;;;;;;;;;;;;;1.02;72.51;101391.87;1609211;87;20137;-73
2022/03/04 00:53:37;;;;;;;;;;;;;;;1.03;72.51;101391.47;1618125;87;20106;-73
2022/03/04 00:56:05;;;;;;;;;;;;;;;1.02;72.49;101398.23;1621422;87;20439;-73
2022/03/04 00:58:30;;;;;;;;;;;;;;;1.02;72.56;101391.00;1616169;88;20100;-73
2022/03/04 01:00:56;;;;;;;;;;;;;;;0.98;72.47;101388.34;1609405;89;20151;-73
2022/03/04 01:03:22;;;;;;;;;;;;;;;0.96;72.37;101388.70;1605034;86;507073;-73
2022/03/04 01:05:48;;;;;;;;;;;;;;;0.94;72.44;101387.78;1622970;87;20197;-73
2022/03/04 01:08:19;;;;;;;;;;;;;;;0.92;72.45;101385.59;1599088;87;20195;-73
2022/03/04 01:10:45;;;;;;;;;;;;;;;0.91;72.45;101388.08;1620287;88;20217;-73
2022/03/04 01:13:12;;;;;;;;;;;;;;;0.88;72.52;101388.84;1604260;87;20278;-73
2022/03/04 01:15:44;;;;;;;;;;;;;;;0.87;72.41;101388.38;1618470;87;20180;-73
2022/03/04 01:18:10;;;;;;;;;;;;;;;0.86;72.48;101392.14;1638058;87;20133;-73
2022/03/04 01:20:36;;;;;;;;;;;;;;;0.84;72.66;101386.13;1631867;87;20131;-73
2022/03/04 01:23:03;;;;;;;;;;;;;;;0.83;72.62;101395.44;1606233;88;20101;-73
2022/03/04 01:25:29;;;;;;;;;;;;;;;0.84;72.67;101391.22;1596528;88;20117;-73
2022/03/04 01:27:54;;;;;;;;;;;;;;;0.82;72.58;101386.07;1595663;88;20105;-73
2022/03/04 01:30:20;;;;;;;;;;;;;;;0.82;72.57;101394.11;1689786;84;20159;-73
2022/03/04 01:32:47;;;;;;;;;;;;;;;0.80;72.53;101392.78;1683344;84;20225;-74
2022/03/04 01:35:13;;;;;;;;;;;;;;;0.79;72.66;101388.51;1675032;85;20123;-74
2022/03/04 01:37:40;;;;;;;;;;;;;;;0.79;72.79;101387.64;1674969;85;20151;-74
2022/03/04 01:40:07;;;;;;;;;;;;;;;0.79;72.79;101387.64;1675129;84;20163;-74
2022/03/04 01:42:33;;;;;;;;;;;;;;;0.78;72.84;101381.68;1653931;85;20135;-74
2022/03/04 01:45:01;;;;;;;;;;;;;;;0.80;72.56;101380.47;1675180;85;20148;-74
2022/03/04 01:47:27;;;;;;;;;;;;;;;0.80;72.51;101379.19;1686760;84;20135;-73
2022/03/04 01:49:53;;;;;;;;;;;;;;;0.78;72.47;101384.23;1675083;84;20162;-74
2022/03/04 01:52:20;;;;;;;;;;;;;;;0.76;72.74;101383.71;1675667;84;20131;-74
2022/03/04 01:54:46;;;;;;;;;;;;;;;0.75;72.80;101382.84;1687249;84;20123;-74
2022/03/04 01:57:13;;;;;;;;;;;;;;;0.76;72.75;101379.89;1674958;85;20241;-74
2022/03/04 01:59:39;;;;;;;;;;;;;;;0.75;72.86;101385.39;1674959;85;20168;-73
2022/03/04 02:02:05;;;;;;;;;;;;;;;0.75;72.87;101384.12;1679824;84;20178;-73
2022/03/04 02:04:30;;;;;;;;;;;;;;;0.78;72.95;101383.36;1675065;84;20266;-76
2022/03/04 02:06:56;;;;;;;;;;;;;;;0.77;72.92;101383.77;1675102;84;20174;-76
2022/03/04 02:09:22;;;;;;;;;;;;;;;0.76;72.76;101384.58;1674839;84;20163;-74
2022/03/04 02:11:48;;;;;;;;;;;;;;;0.76;72.88;101386.26;1684849;84;20115;-73
2022/03/04 02:14:15;;;;;;;;;;;;;;;0.75;72.93;101390.89;1674948;84;20222;-74
2022/03/04 02:16:47;;;;;;;;;;;;;;;0.75;72.62;101393.43;1690781;84;20125;-74
2022/03/04 02:19:13;;;;;;;;;;;;;;;0.71;72.71;101383.55;1703277;84;20149;-74
2022/03/04 02:21:54;;;;;;;;;;;;;;;0.72;72.86;101386.95;1702850;84;20132;-74
2022/03/04 02:24:22;;;;;;;;;;;;;;;0.71;72.91;101378.45;1696523;84;20139;-73
2022/03/04 02:26:54;;;;;;;;;;;;;;;0.71;72.83;101382.67;1685920;84;20156;-73
2022/03/04 02:29:21;;;;;;;;;;;;;;;0.70;72.98;101383.48;1694996;83;20123;-73
2022/03/04 02:31:48;;;;;;;;;;;;;;;0.71;73.01;101382.67;1674949;84;20127;-73
2022/03/04 02:34:14;;;;;;;;;;;;;;;0.71;72.90;101387.36;1675029;85;20147;-73
2022/03/04 02:36:40;;;;;;;;;;;;;;;0.71;73.07;101385.22;1675102;84;20225;-73
2022/03/04 02:39:06;;;;;;;;;;;;;;;0.71;72.90;101386.50;1675050;84;20135;-73
2022/03/04 02:41:36;;;;;;;;;;;;;;;0.72;73.12;101390.38;1675009;85;20148;-73
2022/03/04 02:44:03;;;;;;;;;;;;;;;0.73;72.94;101391.23;1675154;84;20753;-73
2022/03/04 02:46:29;;;;;;;;;;;;;;;0.73;73.13;101389.96;1687014;84;20122;-73
2022/03/04 02:48:55;;;;;;;;;;;;;;;0.73;73.11;101395.05;1675047;85;20190;-73
2022/03/04 02:51:21;;;;;;;;;;;;;;;0.74;73.00;101395.52;1678662;84;20174;-73
2022/03/04 02:53:47;;;;;;;;;;;;;;;0.74;73.19;101401.88;1677771;83;20158;-73
2022/03/04 02:56:13;;;;;;;;;;;;;;;0.72;73.06;101395.86;1675245;84;20135;-73
2022/03/04 02:58:39;;;;;;;;;;;;;;;0.70;73.08;101395.81;1690275;84;20131;-73
2022/03/04 03:01:06;;;;;;;;;;;;;;;0.69;73.03;101396.62;1703128;84;20215;-73
2022/03/04 03:03:34;;;;;;;;;;;;;;;0.68;73.11;101394.02;1703154;83;20133;-73
2022/03/04 03:06:00;;;;;;;;;;;;;;;0.66;73.18;101395.23;1692037;83;20147;-73
2022/03/04 03:08:28;;;;;;;;;;;;;;;0.64;73.28;101393.04;1674962;84;20131;-73
2022/03/04 03:10:54;;;;;;;;;;;;;;;0.62;73.17;101396.80;1674890;84;20135;-73
2022/03/04 03:13:20;;;;;;;;;;;;;;;0.60;73.16;101388.65;1674953;84;20155;-73
2022/03/04 03:15:47;;;;;;;;;;;;;;;0.58;73.13;101389.00;1679039;84;20166;-73
2022/03/04 03:18:12;;;;;;;;;;;;;;;0.54;73.23;101390.56;1698733;84;20124;-73
2022/03/04 03:20:38;;;;;;;;;;;;;;;0.51;73.33;101390.48;1674392;84;20158;-73
2022/03/04 03:23:05;;;;;;;;;;;;;;;0.47;73.23;101386.09;1672427;85;20135;-73
2022/03/04 03:25:30;;;;;;;;;;;;;;;0.45;73.33;101393.20;1672569;85;20198;-73
2022/03/04 03:27:56;;;;;;;;;;;;;;;0.42;73.28;101390.14;1679439;84;20178;-73
2022/03/04 03:30:22;;;;;;;;;;;;;;;0.38;73.27;101389.96;1672620;84;20182;-73
2022/03/04 03:32:51;;;;;;;;;;;;;;;0.35;73.19;101387.30;1672727;85;20115;-73
2022/03/04 03:35:16;;;;;;;;;;;;;;;0.31;73.29;101391.00;1672529;84;20159;-73
2022/03/04 03:37:42;;;;;;;;;;;;;;;0.29;73.34;101396.44;1685012;84;20214;-73
2022/03/04 03:40:12;;;;;;;;;;;;;;;0.28;73.39;101404.88;1685384;84;20157;-73
2022/03/04 03:42:39;;;;;;;;;;;;;;;0.26;73.36;101393.78;1700629;84;20165;-73
2022/03/04 03:45:06;;;;;;;;;;;;;;;0.26;73.38;101396.72;1682743;84;20115;-73
2022/03/04 03:47:33;;;;;;;;;;;;;;;0.23;73.37;101394.93;1676818;84;20141;-73
2022/03/04 03:49:58;;;;;;;;;;;;;;;0.23;73.38;101395.34;1672955;84;20135;-73
2022/03/04 03:52:24;;;;;;;;;;;;;;;0.21;73.37;101395.28;1672444;84;20659;-73
2022/03/04 03:54:50;;;;;;;;;;;;;;;0.20;73.32;101391.00;1672177;85;20194;-73
2022/03/04 03:57:16;;;;;;;;;;;;;;;0.18;73.40;101398.97;1672703;84;20278;-73
2022/03/04 03:59:42;;;;;;;;;;;;;;;0.18;73.42;101397.70;1693869;84;20187;-73
2022/03/04 04:02:07;;;;;;;;;;;;;;;0.16;73.42;101395.91;1694467;84;20261;-73
2022/03/04 04:04:36;;;;;;;;;;;;;;;0.15;73.49;101400.13;1670986;86;20170;-73
2022/03/04 04:07:05;;;;;;;;;;;;;;;0.15;73.52;101400.13;1672037;84;20171;-73
2022/03/04 04:09:31;;;;;;;;;;;;;;;0.15;73.55;101397.98;1671141;84;20503;-73
2022/03/04 04:11:57;;;;;;;;;;;;;;;0.16;73.64;101402.27;1672814;84;20123;-73
2022/03/04 04:14:23;;;;;;;;;;;;;;;0.16;73.51;101397.18;1672479;85;20163;-73
2022/03/04 04:16:49;;;;;;;;;;;;;;;0.14;73.50;101397.52;1688053;81;20127;-73
2022/03/04 04:19:15;;;;;;;;;;;;;;;0.11;73.41;101398.27;1674974;84;20186;-73
2022/03/04 04:21:41;;;;;;;;;;;;;;;0.10;73.53;101398.21;1692948;84;20357;-73
2022/03/04 04:24:07;;;;;;;;;;;;;;;0.10;73.58;101400.35;1693678;83;20184;-73
2022/03/04 04:26:33;;;;;;;;;;;;;;;0.11;73.55;101398.67;1654010;84;20194;-73
2022/03/04 04:28:59;;;;;;;;;;;;;;;0.09;73.54;101406.24;1674943;84;20219;-73
2022/03/04 04:31:25;;;;;;;;;;;;;;;0.10;73.53;101402.89;1690338;84;20187;-73
2022/03/04 04:33:51;;;;;;;;;;;;;;;0.09;73.46;101402.84;1702762;83;20365;-73
2022/03/04 04:36:18;;;;;;;;;;;;;;;0.05;73.45;101398.03;1703172;84;20179;-73
2022/03/04 04:38:43;;;;;;;;;;;;;;;0.04;73.54;101395.43;1703277;84;20152;-73
2022/03/04 04:41:09;;;;;;;;;;;;;;;0.03;73.52;101399.64;1702241;83;20167;-74
2022/03/04 04:43:35;;;;;;;;;;;;;;;0.02;73.54;101404.27;1685238;83;20166;-74
2022/03/04 04:46:03;;;;;;;;;;;;;;;0.02;73.53;101399.59;1678721;84;20156;-74
2022/03/04 04:48:29;;;;;;;;;;;;;;;-0.01;73.49;101401.23;1674826;84;20115;-74
2022/03/04 04:50:55;;;;;;;;;;;;;;;-0.03;73.49;101391.41;1672729;85;20230;-74
2022/03/04 04:53:20;;;;;;;;;;;;;;;-0.03;73.54;101399.03;1674066;84;20186;-74
2022/03/04 04:55:46;;;;;;;;;;;;;;;-0.04;73.53;101399.84;1687111;82;20804;-74
2022/03/04 04:58:12;;;;;;;;;;;;;;;-0.05;73.52;101398.51;1713150;82;20308;-74
2022/03/04 05:00:38;;;;;;;;;;;;;;;-0.07;73.54;101400.13;1674165;83;20217;-74
2022/03/04 05:03:04;;;;;;;;;;;;;;;-0.11;73.46;101396.59;1684483;83;20359;-74
2022/03/04 05:05:30;;;;;;;;;;;;;;;-0.15;73.48;101396.41;1694719;83;20800;-73
2022/03/04 05:07:55;;;;;;;;;;;;;;;-0.21;73.41;101391.95;1691611;84;20219;-73
2022/03/04 05:10:21;;;;;;;;;;;;;;;-0.26;73.44;101392.57;1699536;83;20195;-72
2022/03/04 05:12:47;;;;;;;;;;;;;;;-0.34;73.34;101391.86;1695245;83;20404;-73
2022/03/04 05:15:21;;;;;;;;;;;;;;;-0.42;73.33;101399.97;1696277;84;20487;-73
2022/03/04 05:17:50;;;;;;;;;;;;;;;-0.49;73.47;101401.80;1695394;84;20152;-72
2022/03/04 05:20:16;;;;;;;;;;;;;;;-0.57;73.36;101403.19;1700049;84;20125;-72
2022/03/04 05:22:42;;;;;;;;;;;;;;;-0.62;73.49;101403.39;1699341;84;20149;-72
2022/03/04 05:25:08;;;;;;;;;;;;;;;-0.67;73.49;101411.69;1697521;83;20183;-72
2022/03/04 05:27:34;;;;;;;;;;;;;;;-0.70;73.55;101409.42;1698369;83;20215;-72
2022/03/04 05:29:59;;;;;;;;;;;;;;;-0.74;73.53;101409.69;1703535;83;20112;-72
2022/03/04 05:32:25;;;;;;;;;;;;;;;-0.78;73.40;101409.09;1705588;83;20188;-72
2022/03/04 05:34:51;;;;;;;;;;;;;;;-0.84;73.28;101415.58;1703841;83;20165;-72
2022/03/04 05:37:17;;;;;;;;;;;;;;;-0.91;73.37;101420.80;1698606;83;20218;-72
2022/03/04 05:39:43;;;;;;;;;;;;;;;-0.95;73.38;101424.00;1691989;83;20251;-72
2022/03/04 05:42:09;;;;;;;;;;;;;;;-1.02;73.42;101424.14;1680800;84;20123;-72
2022/03/04 05:44:34;;;;;;;;;;;;;;;-1.06;73.47;101424.84;1673024;84;20227;-72
2022/03/04 05:47:00;;;;;;;;;;;;;;;-1.10;73.53;101426.77;1691667;84;20755;-72
2022/03/04 05:49:26;;;;;;;;;;;;;;;-1.11;73.40;101429.24;1692143;84;20195;-71
2022/03/04 05:51:52;;;;;;;;;;;;;;;-1.15;73.45;101428.23;1693201;84;20250;-73
2022/03/04 05:54:18;;;;;;;;;;;;;;;-1.17;73.50;101428.97;1700575;84;20156;-72
2022/03/04 05:56:44;;;;;;;;;;;;;;;-1.18;73.44;101427.23;1700825;84;20223;-74
2022/03/04 05:59:11;;;;;;;;;;;;;;;-1.16;73.65;101434.11;1689484;83;20175;-72
2022/03/04 06:01:37;;;;;;;;;;;;;;;-1.12;73.71;101438.92;1703935;83;20488;-73
2022/03/04 06:04:02;;;;;;;;;;;;;;;-1.09;73.94;101438.66;1700376;83;20239;-72
2022/03/04 06:06:28;;;;;;;;;;;;;;;-1.04;73.96;101443.50;1701636;83;20215;-73
2022/03/04 06:08:57;;;;;;;;;;;;;;;-1.00;73.97;101434.36;1691499;84;20124;-73
2022/03/04 06:11:23;;;;;;;;;;;;;;;-0.96;73.86;101440.44;1699793;83;20253;-72
2022/03/04 06:13:49;;;;;;;;;;;;;;;-0.94;73.78;101440.97;1706222;83;20938;-72
2022/03/04 06:16:20;;;;;;;;;;;;;;;-0.93;73.76;101443.11;1700374;83;20551;-72
2022/03/04 06:18:46;;;;;;;;;;;;;;;-0.89;73.94;101443.31;1711780;83;20209;-73
2022/03/04 06:21:13;;;;;;;;;;;;;;;-0.84;74.14;101446.91;1717774;83;20515;-73
2022/03/04 06:23:39;;;;;;;;;;;;;;;-0.76;74.28;101450.66;1691782;84;302456;-72
2022/03/04 06:26:05;;;;;;;;;;;;;;;-0.68;74.20;101450.58;1697773;84;20123;-72
2022/03/04 06:28:31;;;;;;;;;;;;;;;-0.59;74.28;101459.00;1703483;84;20154;-72
2022/03/04 06:30:57;;;;;;;;;;;;;;;-0.51;74.37;101457.62;1691402;83;20792;-73
2022/03/04 06:33:32;;;;;;;;;;;;;;;-0.42;74.28;101458.41;1684095;84;20132;-73
2022/03/04 06:36:03;;;;;;;;;;;;;;;-0.33;74.30;101468.95;1700955;84;20250;-72
2022/03/04 06:38:30;;;;;;;;;;;;;;;-0.24;74.18;101468.06;1662044;86;20542;-72
2022/03/04 06:40:57;;;;;;;;;;;;;;;-0.15;74.52;101473.53;1662793;85;20144;-72
2022/03/04 06:43:24;;;;;;;;;;;;;;;-0.06;74.41;101477.72;1651326;86;20474;-72
2022/03/04 06:45:50;;;;;;;;;;;;;;;0.04;74.44;101483.14;1660602;85;20897;-73
2022/03/04 06:48:21;;;;;;;;;;;;;;;0.13;74.46;101480.97;1655891;84;20797;-73
2022/03/04 06:50:47;;;;;;;;;;;;;;;0.24;74.58;101488.22;1628278;86;20493;-74
2022/03/04 06:53:13;;;;;;;;;;;;;;;0.32;74.55;101480.90;1636350;86;20522;-74
2022/03/04 06:55:39;;;;;;;;;;;;;;;0.43;74.57;101487.68;1639813;86;20646;-74
2022/03/04 06:58:05;;;;;;;;;;;;;;;0.51;74.45;101481.21;1637044;86;20901;-74
2022/03/04 07:00:31;;;;;;;;;;;;;;;0.58;74.58;101484.02;1628046;86;20837;-74
2022/03/04 07:02:57;;;;;;;;;;;;;;;0.65;74.43;101494.89;1641755;84;20794;-74
2022/03/04 07:05:23;;;;;;;;;;;;;;;0.73;74.49;101496.87;1640041;87;20790;-74
2022/03/04 07:07:50;;;;;;;;;;;;;;;0.80;74.52;101497.16;1640184;87;20514;-75
2022/03/04 07:10:16;;;;;;;;;;;;;;;0.86;74.34;101494.84;1628851;86;20439;-75
2022/03/04 07:12:42;;;;;;;;;;;;;;;0.93;74.46;101501.03;1635167;86;20415;-75
2022/03/04 07:15:09;;;;;;;;;;;;;;;0.99;74.52;101499.58;1622098;87;20892;-75
2022/03/04 07:17:35;;;;;;;;;;;;;;;1.07;74.49;101508.74;1631541;86;20400;-75
2022/03/04 07:20:02;;;;;;;;;;;;;;;1.13;74.47;101507.70;1607201;87;20115;-75
2022/03/04 07:22:28;;;;;;;;;;;;;;;1.21;74.56;101513.06;1621557;88;20515;-75
2022/03/04 07:24:55;;;;;;;;;;;;;;;1.26;74.42;101511.55;1626667;87;20117;-75
2022/03/04 07:27:21;;;;;;;;;;;;;;;1.32;74.47;101515.19;1623629;87;21287;-75
2022/03/04 07:29:46;;;;;;;;;;;;;;;1.41;74.61;101515.06;1624705;87;20826;-75
2022/03/04 07:32:19;;;;;;;;;;;;;;;1.48;74.62;101515.33;1617441;87;20155;-75
2022/03/04 07:34:45;;;;;;;;;;;;;;;1.58;74.62;101520.31;1626836;87;20130;-75
2022/03/04 07:37:10;;;;;;;;;;;;;;;1.65;74.63;101519.71;1616705;87;20728;-75
2022/03/04 07:39:39;;;;;;;;;;;;;;;1.74;74.74;101527.68;1626916;87;20113;-75
2022/03/04 07:42:06;;;;;;;;;;;;;;;1.81;74.70;101528.34;1615877;87;20419;-75
2022/03/04 07:44:31;;;;;;;;;;;;;;;1.85;74.59;101527.64;1622542;88;20446;-75
2022/03/04 07:46:58;;;;;;;;;;;;;;;1.89;74.55;101525.66;1618907;88;20448;-74
2022/03/04 07:49:24;;;;;;;;;;;;;;;1.94;74.52;101529.63;1624903;87;20774;-74
2022/03/04 07:51:50;;;;;;;;;;;;;;;1.97;74.48;101534.84;1618501;87;20239;-74
2022/03/04 07:54:18;;;;;;;;;;;;;;;2.04;74.51;101533.36;1624772;87;20201;-74
2022/03/04 07:56:44;;;;;;;;;;;;;;;2.12;74.57;101535.31;1623338;87;20456;-74
2022/03/04 07:59:10;;;;;;;;;;;;;;;2.21;74.50;101533.48;1606511;88;20232;-75
2022/03/04 08:01:36;;;;;;;;;;;;;;;2.24;74.48;101542.09;1625007;87;20576;-75
2022/03/04 08:04:02;;;;;;;;;;;;;;;2.29;74.44;101541.84;1622206;87;20891;-75
2022/03/04 08:06:28;;;;;;;;;;;;;;;2.33;74.36;101547.50;1625015;87;20193;-75
2022/03/04 08:08:54;;;;;;;;;;;;;;;2.39;74.43;101543.01;1620921;87;20256;-75
2022/03/04 08:11:20;;;;;;;;;;;;;;;2.43;74.31;101546.11;1606438;88;20238;-75
2022/03/04 08:13:47;;;;;;;;;;;;;;;2.45;74.41;101551.27;1619532;88;20187;-75
2022/03/04 08:16:13;;;;;;;;;;;;;;;2.48;74.37;101556.47;1624767;87;20247;-74
2022/03/04 08:18:38;;;;;;;;;;;;;;;2.50;74.33;101553.15;1620305;87;20199;-74
2022/03/04 08:21:04;;;;;;;;;;;;;;;2.54;74.32;101547.33;1615145;87;20601;-74
2022/03/04 08:23:30;;;;;;;;;;;;;;;2.60;74.35;101546.66;1627471;86;20215;-75
2022/03/04 08:26:02;;;;;;;;;;;;;;;2.69;74.32;101547.31;1637251;87;20416;-75
2022/03/04 08:28:25;;;;;;;;;;;;;;;2.78;74.31;101552.70;1635178;87;20188;-74
2022/03/04 08:30:50;;;;;;;;;;;;;;;2.91;74.34;101555.68;1616846;87;20742;-74
2022/03/04 08:33:16;;;;;;;;;;;;;;;3.07;74.31;101555.73;1635457;87;20227;-74
2022/03/04 08:35:42;;;;;;;;;;;;;;;3.22;74.32;101554.00;1613820;88;20208;-74
2022/03/04 08:38:07;;;;;;;;;;;;;;;3.30;74.12;101552.53;1610893;88;20788;-75
2022/03/04 08:40:33;;;;;;;;;;;;;;;3.40;74.18;101552.38;1619970;88;20309;-74
2022/03/04 08:42:59;;;;;;;;;;;;;;;3.45;73.90;101557.22;1686426;83;20290;-75
2022/03/04 08:45:25;;;;;;;;;;;;;;;3.51;74.01;101562.09;1698594;83;20846;-75
2022/03/04 08:47:51;;;;;;;;;;;;;;;3.61;74.08;101555.54;1695123;83;20216;-75
2022/03/04 08:50:17;;;;;;;;;;;;;;;3.69;73.98;101562.98;1698625;83;20188;-74
2022/03/04 08:52:43;;;;;;;;;;;;;;;3.77;73.90;101564.46;1695188;83;20661;-75
2022/03/04 08:55:16;;;;;;;;;;;;;;;3.83;73.90;101568.47;1694206;83;20452;-74
2022/03/04 08:57:47;;;;;;;;;;;;;;;3.85;73.72;101561.70;1688385;84;20139;-75
2022/03/04 09:00:14;;;;;;;;;;;;;;;3.88;73.91;101566.48;1701727;82;20152;-75
2022/03/04 09:02:40;;;;;;;;;;;;;;;3.86;73.68;101573.25;1706315;82;20085;-75
2022/03/04 09:05:07;;;;;;;;;;;;;;;3.91;73.77;101579.77;1704231;82;20156;-75
2022/03/04 09:07:36;;;;;;;;;;;;;;;3.91;73.62;101583.61;1704837;82;20137;-74
2022/03/04 09:10:05;;;;;;;;;;;;;;;3.89;73.69;101589.09;1700270;82;20127;-74
2022/03/04 09:12:32;;;;;;;;;;;;;;;3.89;73.74;101582.29;1713490;82;20813;-74
2022/03/04 09:14:57;;;;;;;;;;;;;;;3.86;73.56;101584.77;1687935;82;21877;-74
2022/03/04 09:17:23;;;;;;;;;;;;;;;3.87;73.71;101585.22;1716123;82;20197;-74
2022/03/04 09:19:49;;;;;;;;;;;;;;;3.85;73.42;101589.84;1705803;82;20205;-75
2022/03/04 09:22:15;;;;;;;;;;;;;;;3.83;73.51;101596.20;1697282;82;20751;-75
2022/03/04 09:24:41;;;;;;;;;;;;;;;3.79;73.58;101592.23;1697874;82;20221;-74
2022/03/04 09:27:07;;;;;;;;;;;;;;;3.75;73.46;101595.53;1707075;82;20171;-75
2022/03/04 09:29:33;;;;;;;;;;;;;;;3.70;73.43;101601.80;1710246;82;20192;-75
2022/03/04 09:32:00;;;;;;;;;;;;;;;3.72;73.42;101604.39;1704487;82;20419;-75
2022/03/04 09:34:28;;;;;;;;;;;;;;;3.75;73.47;101606.63;1721162;82;20509;-75
2022/03/04 09:36:54;;;;;;;;;;;;;;;3.80;73.48;101609.31;1708145;82;20162;-75
2022/03/04 09:39:20;;;;;;;;;;;;;;;3.82;73.45;101609.81;1704409;82;20246;-75
2022/03/04 09:41:46;;;;;;;;;;;;;;;3.83;73.28;101611.95;1708896;82;20688;-75
2022/03/04 09:44:12;;;;;;;;;;;;;;;3.86;73.38;101611.62;1710064;82;20111;-75
2022/03/04 09:46:40;;;;;;;;;;;;;;;3.86;73.19;101604.37;1704471;82;20107;-75
2022/03/04 09:49:07;;;;;;;;;;;;;;;3.80;73.24;101611.45;1722537;82;20118;-75
2022/03/04 09:51:33;;;;;;;;;;;;;;;3.80;73.25;101606.34;1723473;82;20139;-75
2022/03/04 09:53:59;;;;;;;;;;;;;;;3.77;73.19;101605.39;1716955;82;20172;-77
2022/03/04 09:56:25;;;;;;;;;;;;;;;3.77;73.18;101606.26;1667753;84;20221;-74
2022/03/04 09:58:51;;;;;;;;;;;;;;;3.76;73.15;101609.64;1682425;84;20172;-75
2022/03/04 10:01:17;;;;;;;;;;;;;;;3.75;73.03;101607.91;1640195;86;20096;-75
2022/03/04 10:03:51;;;;;;;;;;;;;;;3.71;72.92;101608.64;1669771;84;20220;-74
2022/03/04 10:06:18;;;;;;;;;;;;;;;3.70;73.08;101611.16;1662787;84;20139;-74
2022/03/04 10:08:47;;;;;;;;;;;;;;;3.67;72.99;101608.10;1668115;84;20155;-74
2022/03/04 10:11:16;;;;;;;;;;;;;;;3.70;73.08;101610.75;1670441;84;20215;-74
2022/03/04 10:13:47;;;;;;;;;;;;;;;3.71;73.05;101608.64;1666630;84;20538;-74
2022/03/04 10:16:24;;;;;;;;;;;;;;;3.74;73.00;101611.70;1663578;84;20475;-74
2022/03/04 10:19:08;;;;;;;;;;;;;;;3.77;72.97;101614.34;1662803;84;20223;-74
2022/03/04 10:21:55;;;;;;;;;;;;;;;3.80;72.99;101611.45;1652330;85;20200;-75
2022/03/04 10:24:30;;;;;;;;;;;;;;;3.87;72.99;101615.92;1652939;85;20141;-75
2022/03/04 10:27:02;;;;;;;;;;;;;;;3.86;72.84;101610.76;1666209;84;20262;-74
2022/03/04 10:29:30;;;;;;;;;;;;;;;3.87;72.94;101615.05;1661887;84;20570;-74
2022/03/04 10:32:14;;;;;;;;;;;;;;;3.87;72.94;101609.94;1669164;84;20167;-74
2022/03/04 10:34:51;;;;;;;;;;;;;;;3.84;72.89;101613.27;1664743;84;20235;-74
2022/03/04 10:37:38;;;;;;;;;;;;;;;3.82;72.98;101607.25;1669682;84;20140;-74
2022/03/04 10:40:22;;;;;;;;;;;;;;;3.84;73.01;101608.16;1663459;84;20215;-74
2022/03/04 10:43:02;;;;;;;;;;;;;;;3.86;72.93;101603.08;1659270;84;20495;-74
2022/03/04 10:45:30;;;;;;;;;;;;;;;3.88;72.87;101607.42;1648797;85;20237;-74
2022/03/04 10:48:04;;;;;;;;;;;;;;;3.91;72.93;101598.55;1664552;85;20503;-74
2022/03/04 10:50:42;;;;;;;;;;;;;;;3.93;72.74;101599.45;1667234;84;20441;-74
2022/03/04 10:53:25;;;;;;;;;;;;;;;3.97;72.77;101598.71;1664647;85;20158;-74
2022/03/04 10:55:52;;;;;;;;;;;;;;;4.05;72.83;101595.48;1659625;85;20209;-74
2022/03/04 10:58:21;;;;;;;;;;;;;;;4.10;72.87;101602.46;1652618;84;20235;-74
2022/03/04 11:00:49;;;;;;;;;;;;;;;4.11;72.78;101593.09;1654110;85;20148;-74
2022/03/04 11:03:26;;;;;;;;;;;;;;;4.14;72.62;101592.76;1639760;86;20146;-74
2022/03/04 11:05:54;;;;;;;;;;;;;;;4.17;72.69;101605.60;1666557;85;20102;-75
2022/03/04 11:08:22;;;;;;;;;;;;;;;4.21;72.67;101606.55;1648602;86;20113;-74
2022/03/04 11:10:49;;;;;;;;;;;;;;;4.21;72.64;101602.70;1643947;86;20520;-74
2022/03/04 11:13:15;;;;;;;;;;;;;;;4.18;72.57;101606.05;1641634;86;20107;-74
2022/03/04 11:15:42;;;;;;;;;;;;;;;4.12;72.58;101605.06;1653215;86;20196;-74
2022/03/04 11:18:15;;;;;;;;;;;;;;;4.14;72.66;101600.85;1648105;86;36882;-74
2022/03/04 11:20:42;;;;;;;;;;;;;;;4.17;72.66;101604.32;1634341;86;20115;-74
2022/03/04 11:23:10;;;;;;;;;;;;;;;4.19;72.53;101609.48;1634853;86;20425;-74
2022/03/04 11:25:39;;;;;;;;;;;;;;;4.22;72.53;101607.00;1644721;86;20139;-75
2022/03/04 11:28:14;;;;;;;;;;;;;;;4.25;72.53;101609.23;1637257;86;20149;-74
2022/03/04 11:30:48;;;;;;;;;;;;;;;4.36;72.59;101606.08;1633039;86;20097;-74
2022/03/04 11:33:22;;;;;;;;;;;;;;;4.42;72.46;101616.06;1621565;86;20139;-74
2022/03/04 11:35:57;;;;;;;;;;;;;;;4.47;72.53;101605.93;1619175;87;20430;-74
2022/03/04 11:38:55;;;;;;;;;;;;;;;4.51;72.52;101610.30;1641413;86;20106;-73
2022/03/04 11:41:31;;;;;;;;;;;;;;;4.50;72.33;101606.01;1633376;86;20126;-74
2022/03/04 11:44:14;;;;;;;;;;;;;;;4.44;72.09;101614.81;1653285;86;20107;-74
2022/03/04 11:46:59;;;;;;;;;;;;;;;4.39;72.13;101613.42;1635224;86;20095;-74
2022/03/04 11:49:48;;;;;;;;;;;;;;;4.39;72.15;101617.67;1646511;86;20157;-74
2022/03/04 11:52:21;;;;;;;;;;;;;;;4.38;72.11;101615.94;1624407;86;20157;-74
2022/03/04 11:54:53;;;;;;;;;;;;;;;4.41;72.08;101617.30;1626619;86;20140;-74
2022/03/04 11:57:23;;;;;;;;;;;;;;;4.46;72.01;101615.31;1634565;86;20363;-74
2022/03/04 12:00:02;;;;;;;;;;;;;;;4.49;72.11;101612.83;1624912;86;20218;-74
2022/03/04 12:02:30;;;;;;;;;;;;;;;4.55;72.03;101610.41;1638607;86;20154;-74
2022/03/04 12:05:29;;;;;;;;;;;;;;;4.56;72.00;101608.72;1644998;86;20102;-74
2022/03/04 12:07:58;;;;;;;;;;;;;;;4.58;71.83;101616.89;1630721;86;20140;-74
2022/03/04 12:10:37;;;;;;;;;;;;;;;4.61;71.82;101608.00;1625656;86;20186;-74
2022/03/04 12:13:07;;;;;;;;;;;;;;;4.64;71.86;101612.33;1629673;86;20179;-74
2022/03/04 12:15:37;;;;;;;;;;;;;;;4.66;71.83;101610.67;1643099;86;20168;-74
2022/03/04 12:18:09;;;;;;;;;;;;;;;4.69;71.78;101611.12;1626590;86;20194;-74
2022/03/04 12:20:45;;;;;;;;;;;;;;;4.71;71.68;101619.72;1630105;86;20116;-74
2022/03/04 12:23:18;;;;;;;;;;;;;;;4.68;71.76;101616.67;1651175;85;20302;-74
2022/03/04 12:25:57;;;;;;;;;;;;;;;4.69;71.78;101618.81;1628587;87;20439;-74
2022/03/04 12:28:41;;;;;;;;;;;;;;;4.68;71.77;101614.55;1660392;84;20174;-74
2022/03/04 12:31:15;;;;;;;;;;;;;;;4.71;71.58;101614.18;1654507;85;20196;-74
2022/03/04 12:33:46;;;;;;;;;;;;;;;4.75;71.76;101613.84;1663347;84;20136;-74
2022/03/04 12:36:15;;;;;;;;;;;;;;;4.80;71.64;101607.13;1649682;85;20335;-74
2022/03/04 12:38:50;;;;;;;;;;;;;;;4.85;71.68;101613.23;1666534;84;20126;-73
2022/03/04 12:41:19;;;;;;;;;;;;;;;4.87;71.62;101608.59;1648778;85;20229;-73
2022/03/04 12:43:51;;;;;;;;;;;;;;;4.93;71.73;101612.98;1664835;84;20102;-73
2022/03/04 12:46:20;;;;;;;;;;;;;;;5.02;71.80;101611.05;1655708;85;20110;-74
2022/03/04 12:48:47;;;;;;;;;;;;;;;5.08;71.65;101608.21;1649592;85;20204;-74
2022/03/04 12:51:21;;;;;;;;;;;;;;;5.11;71.64;101607.00;1544362;84;10000982;-74